Terminal Aerodrome Forecast
Issued by NWS Los Angeles, CA

Home | Current Version | Previous Version | Text Only | Print | Product List | Glossary On
Versions: 1 2 3 4 5 6 7 8 9 10 11 12 13 14 15 16 17 18 19 20 21 22 23 24 25 26 27 28
000
FTUS46 KLOX 200500
TAFSMX
TAF
KSMX 200524Z 2006/2106 VRB03KT P6SM OVC011
     FM200900 VRB03KT 5SM BR OVC007
     FM201700 VRB03KT P6SM OVC012
     FM201900 30006KT P6SM SCT015
     FM202100 30014KT P6SM SCT250
     FM210300 31007KT P6SM BKN015=

USA.gov is the U.S. government's official web portal to all federal, state and local government web resources and services.